Alfred, North Dakota
Current Conditions -  °F | °C
As of 10:56 PM on Friday 31 Oct 2014 (Local Time) from KJMS Reporting Station
Clear Clear  
Wind Chill: 17°   Ceiling: Unl
Heat Index: 28°   Visibility: 10mi
Dew Point: 18°   Wind: 14mph
Humidity: 66%   Direction: 160°SSE
Pressure: 30.23"   Gusts: NA
Location:  46.4882°N, 98.8135°W
Report Text: KJMS 010356Z AUTO 16012KT 10SM CLR M02/M08 A3023 RMK AO2 SLP259 T10221078
Loading
Personal Weather Stations






























Interactive Weather Map
Tropical Storm Tracking
New forecast layout! Learn more

10-Day Weather Forecast

Advertisements
Track Severe Weather on mobile